Aeroporto :
LOGIN :

Iscrizione | Disclaimer

   EN    FR    IT 

 










Sommario :    VFR   VFR Marginale   IFR   IFR Intensivo   IFR Molto Intensivo
Visibilità : 
Base nubi : 
>= 8 km
>= 3000ft
5 / 8 km
1000 / 3000 ft
1500m / 5 km
500 / 1000 ft
800 / 1500m
200 / 500 ft
< 800m
< 200 ft
Simboli :   Temporali  Nebbia  Neve Forte  Precipitazioni Forti  Vento > 20 kt
SIGMETs :   Varie  Temporali  Ghiacco  Turbolenza  Onda orograficha  Ceneri Vulcaniche







- Altitudine del aeroporto : 614 ft
- Codice IATA : CRL


EBCI - Charleroi

ULTIMO METAR :
  • 231750Z 06005KT 020V080 5000 BR BKN030 09/07 Q1030 NOSIG

METARs OBSOLETI :
  • 231720Z 05006KT 6000 FEW020 BKN027 10/07 Q1030 NOSIG
  • 231650Z 06006KT 6000 FEW020 BKN027 10/07 Q1030 NOSIG
  • 231620Z 04006KT 010V070 6000 FEW020 BKN027 10/06 Q1030 NOSIG
  • 231550Z 03006KT 6000 FEW020 BKN027 10/06 Q1030 NOSIG
  • 231520Z 03006KT 6000 FEW020 BKN027 10/06 Q1030 NOSIG

TAF TAF EBCI
Valido dal 23 a 18 ore il 25 a 00 ore UTC


231710Z 2318/2424 05005KT 6000 SCT012 BKN020
BECMG 2320/2322 4000 BR BKN007
PROB40
TEMPO 2322/2407 2000 -DZ BKN003
BECMG 2407/2409 8000 NSW SCT017 BKN040
Nessun NOTAM noto per questo aeroporto.



MetMap, La meteo Aeronautica in un colpo d'occhio ! - Copyright ORBIFLY Dicembre 2007 - Disclaimer

ORBIFLY MET'MAP TEAM :

Programmazione e sviluppo : Alexandra Zaïnal
Concezione e sviluppo : Baudouin d'Aumeries
Co-Programmazione e sviluppo : Marc-Olivier Méhu
Supporto tecnico e logistico : Manuel Goepfert
Aiuto per la traduzione : Arnaldo La Scala

Contatto : metmap@orbifly.com




FONTI E CREDITI :

   NOAA